»·PEaware :: N18EF KAPA-KEGE

N18EF :: KAPA-KEGE

FLIGHT INFORMATION

Flight Status: Arrived
Operator: Privately registered:
United States
More flights under this callsign
Pilot: Zack R. (25825)
Aircraft: CIRRUS VISIONJET
(SF50)
More flights by this aircraft type
Origin: KAPA Centennial
United States
Destination: KEGE Eagle Co Regl
United States
More flights between these airports :: More routes between these airports
Route: ROCKI4 RLG
File this flight plan on PilotEdge
Remarks:
Altitude:
(Current/Filed)
21,000ft
Speed:
(Current/Filed)
180kts
Departed: 05-Sep-19 01:32 PM
Arrived: 05-Sep-19 02:07 PM
Distance/Time
Traveled:
95nm/0:35
Distance/Time
To Go:
Arrived

Flight Plot

Page will automatically refresh every two minutes.


Map Options




Map Legend


Flown Route
Filed Route
Departure Airport
Arrival Airport
Navaid (VOR, NDB)
Fix

Horizontal Profiles

Position Reports

Time Latitude Longitude Heading Altitude Ground
Speed
05-Sep-19 13:16 39.570923 -104.848357 180 5888ft 0kts
05-Sep-19 13:17 39.570923 -104.848357 180 5888ft 0kts
05-Sep-19 13:18 39.570923 -104.848357 180 5888ft 0kts
05-Sep-19 13:19 39.570923 -104.848357 180 5888ft 0kts
05-Sep-19 13:20 39.570923 -104.848357 180 5888ft 0kts
05-Sep-19 13:21 39.570923 -104.848357 180 5888ft 0kts
05-Sep-19 13:22 39.570923 -104.848357 180 5888ft 0kts
05-Sep-19 13:23 39.570923 -104.848357 180 5888ft 0kts
05-Sep-19 13:24 39.570923 -104.848357 180 5888ft 0kts
05-Sep-19 13:25 39.570923 -104.848357 180 5888ft 0kts
05-Sep-19 13:26 39.570923 -104.848357 180 5888ft 0kts
05-Sep-19 13:27 39.570923 -104.848357 179 5888ft 0kts
05-Sep-19 13:28 39.569946 -104.849359 176 5888ft 12kts
05-Sep-19 13:29 39.562912 -104.849118 180 5888ft 31kts
05-Sep-19 13:30 39.556803 -104.849914 275 5888ft 12kts
05-Sep-19 13:31 39.574167 -104.850986 358 6060ft 120kts
05-Sep-19 13:32 39.608293 -104.856519 352 7413ft 118kts
05-Sep-19 13:33 39.641947 -104.863972 325 8873ft 127kts
05-Sep-19 13:34 39.650260 -104.907117 288 10448ft 122kts
05-Sep-19 13:35 39.659842 -104.949792 290 11789ft 124kts
05-Sep-19 13:36 39.669952 -104.992537 290 13073ft 125kts
05-Sep-19 13:37 39.680159 -105.035706 289 14288ft 126kts
05-Sep-19 13:38 39.690554 -105.079730 288 15445ft 128kts
05-Sep-19 13:39 39.701070 -105.124386 287 16533ft 131kts
05-Sep-19 13:40 39.711719 -105.169668 287 17582ft 132kts
05-Sep-19 13:41 39.722487 -105.215537 287 18583ft 134kts
05-Sep-19 13:42 39.733346 -105.261842 287 19536ft 135kts
05-Sep-19 13:43 39.744313 -105.308720 287 20449ft 136kts
05-Sep-19 13:44 39.755383 -105.356159 287 21256ft 142kts
05-Sep-19 13:45 39.769322 -105.416127 287 21347ft 205kts
05-Sep-19 13:46 39.787880 -105.496249 287 21417ft 254kts
05-Sep-19 13:47 39.806784 -105.578050 287 21495ft 280kts
05-Sep-19 13:48 39.829988 -105.678815 286 21531ft 298kts
05-Sep-19 13:49 39.854051 -105.783770 286 21531ft 307kts
05-Sep-19 13:50 39.878555 -105.891148 286 21530ft 311kts
05-Sep-19 13:51 39.903199 -105.999674 286 21006ft 319kts
05-Sep-19 13:52 39.927766 -106.108355 286 19089ft 319kts
05-Sep-19 13:53 39.951895 -106.215942 286 17658ft 301kts
05-Sep-19 13:54 39.973517 -106.312369 286 15829ft 260kts
05-Sep-19 13:55 39.993454 -106.405173 273 15030ft 260kts
05-Sep-19 13:56 39.946973 -106.465314 202 14799ft 240kts
05-Sep-19 13:57 39.884015 -106.492475 199 14347ft 240kts
05-Sep-19 13:58 39.818902 -106.519850 199 14050ft 254kts
05-Sep-19 13:59 39.750936 -106.548377 199 13954ft 261kts
05-Sep-19 14:00 39.689602 -106.589524 254 12929ft 242kts
05-Sep-19 14:01 39.681342 -106.667331 256 11921ft 202kts
05-Sep-19 14:02 39.667517 -106.744109 258 9734ft 216kts
05-Sep-19 14:03 39.656986 -106.814585 258 8366ft 159kts
05-Sep-19 14:04 39.649690 -106.863393 257 7374ft 125kts
05-Sep-19 14:05 39.644738 -106.898135 259 6618ft 77kts
05-Sep-19 14:06 39.641489 -106.908935 246 6549ft 10kts
05-Sep-19 14:07 39.640998 -106.910312 169 6549ft 0kts
05-Sep-19 14:08 39.640998 -106.910312 169 6549ft 0kts
05-Sep-19 14:09 39.640998 -106.910312 169 6549ft 0kts
05-Sep-19 14:10 39.640998 -106.910312 169 6549ft 0kts
05-Sep-19 14:11 39.640998 -106.910312 169 6549ft 0kts
05-Sep-19 14:12 39.640998 -106.910312 169 6549ft 0kts

Navigation Log

Ident Type
Flight plan parsing failed, navigation log unavailable